Terminal Aerodrome Forecast
Issued by NWS

Home | Current Version | Previous Version | Text Only | Print | Product List | Glossary On
Versions: 1 2 3 4 5 6 7 8 9 10 11 12
051
FTUS43 KMQT 211138
TAFIWD
TAF
KIWD 211138Z 2112/2212 25010KT P6SM SCT010
     FM211400 24007KT P6SM SCT200
     FM211900 21008KT P6SM FEW200
     FM220100 21008KT P6SM BKN130=

USA.gov is the U.S. government's official web portal to all federal, state and local government web resources and services.